createdAt,value
2018-10-17T00:02:07.703Z,12.20
2018-10-17T00:04:36.248Z,12.20
2018-10-17T00:07:05.153Z,12.10
2018-10-17T00:09:34.311Z,12.00
2018-10-17T00:12:03.094Z,11.90
2018-10-17T00:14:32.767Z,11.90
2018-10-17T00:17:01.463Z,11.90
2018-10-17T00:19:30.038Z,12.00
2018-10-17T00:21:58.588Z,12.00
2018-10-17T00:24:27.170Z,12.00
2018-10-17T00:26:55.704Z,12.00
2018-10-17T00:29:24.318Z,12.00
2018-10-17T00:31:52.842Z,12.00
2018-10-17T00:34:22.112Z,12.00
2018-10-17T00:36:50.639Z,12.00
2018-10-17T00:39:19.212Z,12.00
2018-10-17T00:41:48.560Z,12.10
2018-10-17T00:44:17.081Z,12.00
2018-10-17T00:46:45.884Z,12.00
2018-10-17T00:49:14.514Z,12.00
2018-10-17T00:51:42.978Z,12.00
2018-10-17T00:54:11.546Z,12.00
2018-10-17T00:56:40.441Z,12.00
2018-10-17T00:59:11.193Z,12.00
2018-10-17T01:01:40.079Z,12.00
2018-10-17T01:04:09.015Z,12.00
2018-10-17T01:06:38.304Z,11.90
2018-10-17T01:09:10.409Z,11.90
2018-10-17T01:11:39.548Z,11.90
2018-10-17T01:14:08.462Z,11.80
2018-10-17T01:16:36.999Z,11.80
2018-10-17T01:19:06.119Z,11.70
2018-10-17T01:21:35.548Z,11.80
2018-10-17T01:24:04.453Z,11.80
2018-10-17T01:26:33.341Z,11.70
2018-10-17T01:29:01.985Z,11.70
2018-10-17T01:31:30.628Z,11.70
2018-10-17T01:33:59.665Z,11.60
2018-10-17T01:36:28.231Z,11.50
2018-10-17T01:38:56.771Z,11.50
2018-10-17T01:41:25.521Z,11.40
2018-10-17T01:43:54.639Z,11.50
2018-10-17T01:46:23.192Z,11.50
2018-10-17T01:48:52.608Z,11.40
2018-10-17T01:51:21.159Z,11.40
2018-10-17T01:53:49.820Z,11.30
2018-10-17T01:56:18.341Z,11.40
2018-10-17T01:58:46.913Z,11.40
2018-10-17T02:01:15.712Z,11.40
2018-10-17T02:03:44.233Z,11.40
2018-10-17T02:06:12.834Z,11.40
2018-10-17T02:08:41.426Z,11.40
2018-10-17T02:11:09.998Z,11.40
2018-10-17T02:13:39.236Z,11.40
2018-10-17T02:16:07.815Z,11.40
2018-10-17T02:18:36.348Z,11.40
2018-10-17T02:21:05.305Z,11.40
2018-10-17T02:23:33.892Z,11.40
2018-10-17T02:26:02.580Z,11.40
2018-10-17T02:28:31.132Z,11.40
2018-10-17T02:30:59.901Z,11.30
2018-10-17T02:33:28.579Z,11.30
2018-10-17T02:35:57.128Z,11.30
2018-10-17T02:38:25.918Z,11.20
2018-10-17T02:40:54.481Z,11.20
2018-10-17T02:43:23.089Z,11.10
2018-10-17T02:45:51.650Z,11.10
2018-10-17T02:48:20.513Z,11.00
2018-10-17T02:50:49.213Z,11.00
2018-10-17T02:53:17.785Z,10.90
2018-10-17T02:55:46.351Z,10.90
2018-10-17T02:58:14.863Z,10.90
2018-10-17T03:00:43.427Z,10.90
2018-10-17T03:03:12.152Z,10.90
2018-10-17T03:05:40.699Z,11.00
2018-10-17T03:08:09.477Z,11.00
2018-10-17T03:10:38.046Z,11.00
2018-10-17T03:13:06.726Z,11.10
2018-10-17T03:15:35.380Z,11.00
2018-10-17T03:18:04.060Z,11.00
2018-10-17T03:20:32.729Z,11.00
2018-10-17T03:23:01.402Z,11.00
2018-10-17T03:25:30.596Z,11.00
2018-10-17T03:27:59.272Z,11.00
2018-10-17T03:30:29.112Z,11.00
2018-10-17T03:32:57.744Z,11.10
2018-10-17T03:35:26.262Z,11.10
2018-10-17T03:37:54.835Z,11.00
2018-10-17T03:40:23.602Z,11.00
2018-10-17T03:42:52.187Z,11.00
2018-10-17T03:45:20.728Z,11.00
2018-10-17T03:47:49.311Z,11.00
2018-10-17T03:50:17.893Z,11.00
2018-10-17T03:52:46.493Z,11.00
2018-10-17T03:55:15.099Z,11.00
2018-10-17T03:57:43.746Z,11.00
2018-10-17T04:00:12.940Z,10.90
2018-10-17T04:02:41.476Z,10.90
2018-10-17T04:05:10.163Z,10.90
2018-10-17T04:07:38.700Z,10.90
2018-10-17T04:10:08.160Z,10.90
2018-10-17T04:12:36.695Z,10.90
2018-10-17T04:15:06.042Z,10.80
2018-10-17T04:17:34.772Z,10.80
2018-10-17T04:20:03.662Z,10.80
2018-10-17T04:22:32.257Z,10.80
2018-10-17T04:25:01.023Z,10.80
2018-10-17T04:27:29.646Z,10.70
2018-10-17T04:29:58.230Z,10.70
2018-10-17T04:32:26.801Z,10.60
2018-10-17T04:34:55.649Z,10.60
2018-10-17T04:37:24.462Z,10.60
2018-10-17T04:39:53.033Z,10.60
2018-10-17T04:42:21.605Z,10.60
2018-10-17T04:44:50.201Z,10.60
2018-10-17T04:47:19.060Z,10.60
2018-10-17T04:49:47.605Z,10.60
2018-10-17T04:52:16.141Z,10.60
2018-10-17T04:54:44.691Z,10.60
2018-10-17T04:57:13.333Z,10.60
2018-10-17T04:59:41.933Z,10.60
2018-10-17T05:02:10.515Z,10.60
2018-10-17T05:04:39.185Z,10.60
2018-10-17T05:07:08.075Z,10.60
2018-10-17T05:09:36.598Z,10.50
2018-10-17T05:12:05.446Z,10.50
2018-10-17T05:14:34.079Z,10.50
2018-10-17T05:17:03.004Z,10.60
2018-10-17T05:19:31.709Z,10.50
2018-10-17T05:22:00.335Z,10.50
2018-10-17T05:24:28.887Z,10.50
2018-10-17T05:26:57.490Z,10.50
2018-10-17T05:29:26.341Z,10.50
2018-10-17T05:31:54.970Z,10.50
2018-10-17T05:34:23.683Z,10.50
2018-10-17T05:36:52.301Z,10.50
2018-10-17T05:39:20.842Z,10.50
2018-10-17T05:41:49.429Z,10.50
2018-10-17T05:44:18.204Z,10.40
2018-10-17T05:46:46.765Z,10.50
2018-10-17T05:49:16.200Z,10.50
2018-10-17T05:51:44.827Z,10.50
2018-10-17T05:54:13.376Z,10.50
2018-10-17T05:56:41.996Z,10.50
2018-10-17T05:59:10.660Z,10.40
2018-10-17T06:01:39.308Z,10.40
2018-10-17T06:04:08.362Z,10.40
2018-10-17T06:06:36.974Z,10.40
2018-10-17T06:09:07.810Z,10.50
2018-10-17T06:11:36.435Z,10.50
2018-10-17T06:14:05.360Z,10.60
2018-10-17T06:16:33.984Z,10.60
2018-10-17T06:19:02.526Z,10.70
2018-10-17T06:21:31.212Z,10.70
2018-10-17T06:23:59.770Z,10.80
2018-10-17T06:26:28.364Z,10.80
2018-10-17T06:28:57.212Z,10.90
2018-10-17T06:31:26.338Z,10.90
2018-10-17T06:33:55.316Z,11.00
2018-10-17T06:36:23.874Z,11.00
2018-10-17T06:38:53.485Z,11.10
2018-10-17T06:41:23.665Z,11.10
2018-10-17T06:43:53.008Z,11.10
2018-10-17T06:46:21.760Z,11.20
2018-10-17T06:48:50.406Z,11.20
2018-10-17T06:51:19.071Z,11.30
2018-10-17T06:53:47.708Z,11.30
2018-10-17T06:56:16.320Z,11.30
2018-10-17T06:58:45.605Z,11.40
2018-10-17T07:01:14.480Z,11.50
2018-10-17T07:03:43.474Z,11.50
2018-10-17T07:06:12.073Z,11.60
2018-10-17T07:08:40.641Z,11.60
2018-10-17T07:11:09.391Z,11.70
2018-10-17T07:13:37.932Z,11.80
2018-10-17T07:16:06.840Z,11.80
2018-10-17T07:18:35.591Z,11.90
2018-10-17T07:21:04.890Z,11.90
2018-10-17T07:23:33.712Z,12.00
2018-10-17T07:26:02.509Z,12.10
2018-10-17T07:28:31.152Z,12.10
2018-10-17T07:30:59.894Z,12.20
2018-10-17T07:33:28.830Z,12.30
2018-10-17T07:35:57.363Z,12.40
2018-10-17T07:38:25.969Z,12.40
2018-10-17T07:40:54.546Z,12.50
2018-10-17T07:43:23.128Z,12.60
2018-10-17T07:45:51.683Z,12.70
2018-10-17T07:48:20.406Z,12.80
2018-10-17T07:50:49.247Z,12.80
2018-10-17T07:53:17.879Z,12.90
2018-10-17T07:55:46.466Z,13.00
2018-10-17T07:58:15.183Z,13.10
2018-10-17T08:00:43.863Z,13.20
2018-10-17T08:03:12.463Z,13.30
2018-10-17T08:05:41.117Z,13.40
2018-10-17T08:08:09.759Z,13.50
2018-10-17T08:10:38.404Z,13.60
2018-10-17T08:13:07.191Z,13.70
2018-10-17T08:15:35.795Z,13.80
2018-10-17T08:18:04.639Z,13.90
2018-10-17T08:20:33.261Z,14.00
2018-10-17T08:23:01.936Z,14.10
2018-10-17T08:25:30.580Z,14.20
2018-10-17T08:27:59.192Z,14.30
2018-10-17T08:30:28.159Z,14.40
2018-10-17T08:32:56.747Z,14.50
2018-10-17T08:35:25.432Z,14.50
2018-10-17T08:37:54.367Z,14.70
2018-10-17T08:40:23.107Z,14.70
2018-10-17T08:42:51.825Z,14.90
2018-10-17T08:45:20.508Z,14.90
2018-10-17T08:47:49.060Z,15.00
2018-10-17T08:50:17.793Z,15.10
2018-10-17T08:52:46.237Z,15.20
2018-10-17T08:55:14.793Z,15.30
2018-10-17T08:57:43.405Z,15.40
2018-10-17T09:00:12.116Z,15.50
2018-10-17T09:02:40.653Z,15.60
2018-10-17T09:05:09.283Z,15.70
2018-10-17T09:07:37.944Z,15.80
2018-10-17T09:10:07.255Z,15.90
2018-10-17T09:12:35.819Z,16.00
2018-10-17T09:15:04.669Z,16.10
2018-10-17T09:17:33.304Z,16.20
2018-10-17T09:20:02.165Z,16.30
2018-10-17T09:22:30.538Z,16.40
2018-10-17T09:25:00.045Z,16.50
2018-10-17T09:27:28.785Z,16.50
2018-10-17T09:29:57.394Z,16.60
2018-10-17T09:32:25.976Z,16.70
2018-10-17T09:34:54.607Z,16.80
2018-10-17T09:37:23.361Z,16.90
2018-10-17T09:39:52.235Z,17.00
2018-10-17T09:42:21.953Z,17.10
2018-10-17T09:44:50.504Z,17.10
2018-10-17T09:47:19.087Z,17.20
2018-10-17T09:49:47.659Z,17.30
2018-10-17T09:52:16.301Z,17.30
2018-10-17T09:54:44.837Z,17.40
2018-10-17T09:57:13.413Z,17.50
2018-10-17T09:59:42.155Z,17.50
2018-10-17T10:02:11.078Z,17.60
2018-10-17T10:04:39.790Z,17.60
2018-10-17T10:07:08.369Z,17.60
2018-10-17T10:09:36.955Z,17.70
2018-10-17T10:12:06.048Z,17.70
2018-10-17T10:14:35.147Z,17.70
2018-10-17T10:17:05.327Z,17.80
2018-10-17T10:19:33.854Z,17.80
2018-10-17T10:22:02.435Z,17.80
2018-10-17T10:24:31.103Z,17.80
2018-10-17T10:27:00.247Z,17.80
2018-10-17T10:29:29.009Z,17.90
2018-10-17T10:31:57.583Z,17.90
2018-10-17T10:34:27.709Z,17.90
2018-10-17T10:36:56.237Z,17.90
2018-10-17T10:39:24.871Z,17.90
2018-10-17T10:41:53.495Z,17.90
2018-10-17T10:44:22.106Z,17.90
2018-10-17T10:46:50.905Z,17.90
2018-10-17T10:49:19.538Z,17.90
2018-10-17T10:51:48.263Z,17.80
2018-10-17T10:54:16.888Z,17.80
2018-10-17T10:56:45.436Z,17.80
2018-10-17T10:59:14.842Z,17.80
2018-10-17T11:01:43.358Z,17.70
2018-10-17T11:04:11.927Z,17.70
2018-10-17T11:06:40.518Z,17.60
2018-10-17T11:09:09.919Z,17.50
2018-10-17T11:11:38.917Z,17.50
2018-10-17T11:14:08.115Z,17.40
2018-10-17T11:16:36.632Z,17.40
2018-10-17T11:19:05.479Z,17.30
2018-10-17T11:21:34.105Z,17.40
2018-10-17T11:24:02.673Z,17.30
2018-10-17T11:26:31.357Z,17.20
2018-10-17T11:28:59.959Z,17.20
2018-10-17T11:31:28.563Z,17.20
2018-10-17T11:33:57.051Z,17.20
2018-10-17T11:36:25.609Z,17.20
2018-10-17T11:38:54.339Z,17.20
2018-10-17T11:41:23.039Z,17.20
2018-10-17T11:43:51.543Z,17.10
2018-10-17T11:46:20.409Z,17.10
2018-10-17T11:48:48.930Z,17.10
2018-10-17T11:51:17.582Z,17.10
2018-10-17T11:53:46.056Z,17.10
2018-10-17T11:56:14.658Z,17.10
2018-10-17T11:58:43.184Z,17.10
2018-10-17T12:01:11.912Z,17.10
2018-10-17T12:03:40.607Z,17.10
2018-10-17T12:06:09.714Z,17.10
2018-10-17T12:08:38.444Z,17.10
2018-10-17T12:11:07.062Z,17.20
2018-10-17T12:13:35.787Z,17.20
2018-10-17T12:16:04.648Z,17.20
2018-10-17T12:18:33.260Z,17.30
2018-10-17T12:21:01.910Z,17.30
2018-10-17T12:23:30.536Z,17.30
2018-10-17T12:25:59.100Z,17.30
2018-10-17T12:28:27.756Z,17.30
2018-10-17T12:30:56.243Z,17.30
2018-10-17T12:33:24.811Z,17.40
2018-10-17T12:35:53.338Z,17.40
2018-10-17T12:38:21.943Z,17.40
2018-10-17T12:40:50.618Z,17.50
2018-10-17T12:43:19.158Z,17.50
2018-10-17T12:45:47.838Z,17.50
2018-10-17T12:48:16.335Z,17.60
2018-10-17T12:50:44.865Z,17.60
2018-10-17T12:53:13.488Z,17.60
2018-10-17T12:55:42.015Z,17.60
2018-10-17T12:58:12.917Z,17.60
2018-10-17T13:00:41.457Z,17.60
2018-10-17T13:03:10.415Z,17.60
2018-10-17T13:05:38.963Z,17.60
2018-10-17T13:08:07.609Z,17.60
2018-10-17T13:10:36.129Z,17.60
2018-10-17T13:13:04.881Z,17.70
2018-10-17T13:15:33.488Z,17.70
2018-10-17T13:18:02.095Z,17.70
2018-10-17T13:20:30.858Z,17.70
2018-10-17T13:22:59.527Z,17.70
2018-10-17T13:25:28.030Z,17.70
2018-10-17T13:27:56.663Z,17.70
2018-10-17T13:30:25.215Z,17.80
2018-10-17T13:32:54.159Z,17.80
2018-10-17T13:35:22.739Z,17.80
2018-10-17T13:37:51.314Z,17.80
2018-10-17T13:40:20.061Z,17.80
2018-10-17T13:42:48.756Z,17.70
2018-10-17T13:45:17.317Z,17.70
2018-10-17T13:47:51.399Z,17.80
2018-10-17T13:50:21.520Z,17.70
2018-10-17T13:52:50.113Z,17.70
2018-10-17T13:55:18.785Z,17.80
2018-10-17T13:57:47.397Z,17.80
2018-10-17T14:00:15.949Z,17.80
2018-10-17T14:02:44.873Z,17.80
2018-10-17T14:05:14.087Z,17.90
2018-10-17T14:07:42.669Z,17.90
2018-10-17T14:10:11.262Z,17.90
2018-10-17T14:12:40.481Z,17.90
2018-10-17T14:15:09.100Z,17.90
2018-10-17T14:17:37.657Z,17.90
2018-10-17T14:20:06.676Z,17.90
2018-10-17T14:22:35.249Z,17.90
2018-10-17T14:25:03.821Z,17.80
2018-10-17T14:27:32.573Z,17.80
2018-10-17T14:30:01.130Z,17.80
2018-10-17T14:32:29.741Z,17.80
2018-10-17T14:34:58.472Z,17.80
2018-10-17T14:37:27.083Z,17.80
2018-10-17T14:39:55.605Z,17.80
2018-10-17T14:42:24.214Z,17.70
2018-10-17T14:44:52.743Z,17.70
2018-10-17T14:47:21.336Z,17.70
2018-10-17T14:49:49.868Z,17.70
2018-10-17T14:52:18.476Z,17.70
2018-10-17T14:54:46.983Z,17.70
2018-10-17T14:57:16.199Z,17.70
2018-10-17T14:59:44.733Z,17.70
2018-10-17T15:02:13.274Z,17.70
2018-10-17T15:04:41.833Z,17.60
2018-10-17T15:07:10.396Z,17.60
2018-10-17T15:09:39.007Z,17.60
2018-10-17T15:12:07.649Z,17.60
2018-10-17T15:14:36.183Z,17.50
2018-10-17T15:17:04.771Z,17.50
2018-10-17T15:19:33.633Z,17.50
2018-10-17T15:22:02.212Z,17.50
2018-10-17T15:24:30.774Z,17.50
2018-10-17T15:26:59.432Z,17.50
2018-10-17T15:29:28.081Z,17.50
2018-10-17T15:31:56.739Z,17.50
2018-10-17T15:34:25.535Z,17.40
2018-10-17T15:36:54.289Z,17.30
2018-10-17T15:39:22.892Z,17.30
2018-10-17T15:41:51.691Z,17.20
2018-10-17T15:44:20.332Z,17.20
2018-10-17T15:46:48.909Z,17.10
2018-10-17T15:49:17.535Z,17.10
2018-10-17T15:51:46.281Z,17.00
2018-10-17T15:54:14.983Z,16.90
2018-10-17T15:56:43.543Z,16.90
2018-10-17T15:59:12.082Z,16.80
2018-10-17T16:01:40.648Z,16.80
2018-10-17T16:04:09.381Z,16.80
2018-10-17T16:06:38.961Z,16.70
2018-10-17T16:09:10.849Z,16.60
2018-10-17T16:11:39.600Z,16.60
2018-10-17T16:14:08.237Z,16.50
2018-10-17T16:16:36.859Z,16.50
2018-10-17T16:19:05.505Z,16.40
2018-10-17T16:21:34.101Z,16.30
2018-10-17T16:24:02.805Z,16.30
2018-10-17T16:26:31.447Z,16.20
2018-10-17T16:29:00.273Z,16.20
2018-10-17T16:31:28.937Z,16.10
2018-10-17T16:33:57.548Z,16.10
2018-10-17T16:36:26.134Z,16.10
2018-10-17T16:38:54.709Z,16.00
2018-10-17T16:41:23.450Z,15.90
2018-10-17T16:43:52.067Z,15.90
2018-10-17T16:46:20.721Z,15.80
2018-10-17T16:48:49.301Z,15.80
2018-10-17T16:51:17.960Z,15.80
2018-10-17T16:53:46.535Z,15.70
2018-10-17T16:56:15.128Z,15.70
2018-10-17T16:58:44.464Z,15.60
2018-10-17T17:01:13.161Z,15.60
2018-10-17T17:03:41.750Z,15.60
2018-10-17T17:06:10.578Z,15.50
2018-10-17T17:08:39.986Z,15.50
2018-10-17T17:11:08.515Z,15.40
2018-10-17T17:13:37.090Z,15.40
2018-10-17T17:16:05.849Z,15.40
2018-10-17T17:18:35.113Z,15.30
2018-10-17T17:21:03.709Z,15.20
2018-10-17T17:23:32.317Z,15.20
2018-10-17T17:26:01.606Z,15.20
2018-10-17T17:28:30.260Z,15.20
2018-10-17T17:30:59.649Z,15.10
2018-10-17T17:33:28.437Z,15.10
2018-10-17T17:35:56.980Z,15.00
2018-10-17T17:38:25.586Z,15.00
2018-10-17T17:40:54.411Z,14.90
2018-10-17T17:43:23.125Z,14.90
2018-10-17T17:45:51.943Z,14.90
2018-10-17T17:48:20.676Z,14.90
2018-10-17T17:50:49.422Z,14.80
2018-10-17T17:53:18.186Z,14.80
2018-10-17T17:55:46.837Z,14.70
2018-10-17T17:58:15.598Z,14.70
2018-10-17T18:00:44.178Z,14.70
2018-10-17T18:03:12.891Z,14.70
2018-10-17T18:05:42.211Z,14.70
2018-10-17T18:08:10.776Z,14.60
2018-10-17T18:10:40.038Z,14.60
2018-10-17T18:13:08.631Z,14.60
2018-10-17T18:15:38.308Z,14.60
2018-10-17T18:18:06.927Z,14.60
2018-10-17T18:20:35.909Z,14.50
2018-10-17T18:23:05.487Z,14.50
2018-10-17T18:25:34.469Z,14.40
2018-10-17T18:28:03.454Z,14.40
2018-10-17T18:30:32.177Z,14.40
2018-10-17T18:33:00.903Z,14.30
2018-10-17T18:35:29.685Z,14.30
2018-10-17T18:37:58.987Z,14.30
2018-10-17T18:40:27.827Z,14.30
2018-10-17T18:42:56.646Z,14.20
2018-10-17T18:45:25.291Z,14.20
2018-10-17T18:47:53.977Z,14.20
2018-10-17T18:50:22.539Z,14.10
2018-10-17T18:52:52.250Z,14.20
2018-10-17T18:55:20.935Z,14.20
2018-10-17T18:57:49.526Z,14.10
2018-10-17T19:00:18.354Z,14.10
2018-10-17T19:02:47.231Z,14.10
2018-10-17T19:05:15.847Z,14.10
2018-10-17T19:07:44.510Z,14.10
2018-10-17T19:10:13.377Z,14.10
2018-10-17T19:12:42.063Z,14.00
2018-10-17T19:15:10.676Z,14.00
2018-10-17T19:17:39.277Z,14.00
2018-10-17T19:20:07.985Z,14.00
2018-10-17T19:22:36.593Z,13.90
2018-10-17T19:25:05.659Z,13.90
2018-10-17T19:27:35.349Z,13.90
2018-10-17T19:30:04.394Z,13.90
2018-10-17T19:32:34.637Z,13.90
2018-10-17T19:35:03.789Z,13.80
2018-10-17T19:37:32.380Z,13.80
2018-10-17T19:40:00.937Z,13.80
2018-10-17T19:42:29.779Z,13.70
2018-10-17T19:44:58.640Z,13.70
2018-10-17T19:47:27.644Z,13.70
2018-10-17T19:49:56.374Z,13.70
2018-10-17T19:52:24.953Z,13.70
2018-10-17T19:54:53.567Z,13.70
2018-10-17T19:57:22.333Z,13.60
2018-10-17T19:59:50.914Z,13.60
2018-10-17T20:02:19.622Z,13.60
2018-10-17T20:04:48.321Z,13.50
2018-10-17T20:07:16.931Z,13.50
2018-10-17T20:09:45.549Z,13.50
2018-10-17T20:12:14.141Z,13.50
2018-10-17T20:14:42.739Z,13.40
2018-10-17T20:17:12.538Z,13.40
2018-10-17T20:19:41.143Z,13.40
2018-10-17T20:22:10.858Z,13.30
2018-10-17T20:24:39.471Z,13.30
2018-10-17T20:27:08.786Z,13.30
2018-10-17T20:29:37.375Z,13.20
2018-10-17T20:32:06.712Z,13.20
2018-10-17T20:34:35.453Z,13.20
2018-10-17T20:37:04.080Z,13.20
2018-10-17T20:39:32.817Z,13.20
2018-10-17T20:42:01.667Z,13.20
2018-10-17T20:44:30.367Z,13.20
2018-10-17T20:46:59.072Z,13.20
2018-10-17T20:49:27.672Z,13.20
2018-10-17T20:51:56.269Z,13.20
2018-10-17T20:54:24.927Z,13.10
2018-10-17T20:56:54.193Z,13.10
2018-10-17T20:59:23.787Z,13.00
2018-10-17T21:01:52.453Z,13.00
2018-10-17T21:04:21.018Z,13.00
2018-10-17T21:06:49.589Z,13.00
2018-10-17T21:09:18.771Z,12.90
2018-10-17T21:11:47.409Z,12.90
2018-10-17T21:14:16.167Z,12.90
2018-10-17T21:16:44.944Z,12.90
2018-10-17T21:19:13.575Z,12.90
2018-10-17T21:21:42.163Z,12.80
2018-10-17T21:24:10.714Z,12.80
2018-10-17T21:26:39.362Z,12.70
2018-10-17T21:29:07.967Z,12.70
2018-10-17T21:31:37.150Z,12.70
2018-10-17T21:34:05.848Z,12.70
2018-10-17T21:36:34.570Z,12.70
2018-10-17T21:39:08.712Z,12.70
2018-10-17T21:41:37.369Z,12.70
2018-10-17T21:44:06.839Z,12.70
2018-10-17T21:46:35.409Z,12.70
2018-10-17T21:49:04.005Z,12.70
2018-10-17T21:51:33.081Z,12.70
2018-10-17T21:54:01.962Z,12.60
2018-10-17T21:56:30.575Z,12.50
2018-10-17T21:58:59.709Z,12.50
2018-10-17T22:01:28.327Z,12.50
2018-10-17T22:03:56.898Z,12.40
2018-10-17T22:06:25.512Z,12.40
2018-10-17T22:08:54.294Z,12.40
2018-10-17T22:11:22.865Z,12.40
2018-10-17T22:13:51.576Z,12.40
2018-10-17T22:16:20.101Z,12.40
2018-10-17T22:18:48.751Z,12.40
2018-10-17T22:21:17.271Z,12.40
2018-10-17T22:23:45.858Z,12.40
2018-10-17T22:26:14.626Z,12.40
2018-10-17T22:28:43.085Z,12.40
2018-10-17T22:31:11.641Z,12.40
2018-10-17T22:33:40.977Z,12.30
2018-10-17T22:36:09.726Z,12.30
2018-10-17T22:38:38.290Z,12.30
2018-10-17T22:41:06.887Z,12.20
2018-10-17T22:43:36.925Z,12.30
2018-10-17T22:46:05.731Z,12.30
2018-10-17T22:48:34.311Z,12.30
2018-10-17T22:51:02.893Z,12.30
2018-10-17T22:53:32.408Z,12.20
2018-10-17T22:56:01.068Z,12.20
2018-10-17T22:58:29.682Z,12.20
2018-10-17T23:00:58.220Z,12.20
2018-10-17T23:03:26.842Z,12.20
2018-10-17T23:05:55.360Z,12.10
2018-10-17T23:08:23.954Z,12.10
2018-10-17T23:10:52.482Z,12.10
2018-10-17T23:13:21.688Z,12.00
2018-10-17T23:15:50.196Z,12.00
2018-10-17T23:18:18.754Z,12.00
2018-10-17T23:20:47.262Z,12.00
2018-10-17T23:23:15.992Z,11.90
2018-10-17T23:25:44.548Z,11.90
2018-10-17T23:28:13.318Z,11.90
2018-10-17T23:30:41.886Z,11.90
2018-10-17T23:33:10.418Z,11.90
2018-10-17T23:35:39.300Z,11.80
2018-10-17T23:38:07.823Z,11.80
2018-10-17T23:40:36.442Z,11.80
2018-10-17T23:43:06.040Z,11.80
2018-10-17T23:45:34.644Z,11.80
2018-10-17T23:48:03.297Z,11.80
2018-10-17T23:50:31.880Z,11.80
2018-10-17T23:53:00.584Z,11.80
2018-10-17T23:55:29.119Z,11.80
2018-10-17T23:57:57.686Z,11.80
